createdAt,value
2023-04-06T00:01:06.192Z,98961.75
2023-04-06T00:03:33.217Z,98960.88
2023-04-06T00:06:00.766Z,98960.88
2023-04-06T00:08:28.372Z,98960.88
2023-04-06T00:10:56.082Z,98960.91
2023-04-06T00:13:23.117Z,98954.00
2023-04-06T00:15:50.378Z,98946.22
2023-04-06T00:18:17.364Z,98945.34
2023-04-06T00:20:44.556Z,98941.06
2023-04-06T00:23:11.465Z,98939.31
2023-04-06T00:25:38.702Z,98938.47
2023-04-06T00:28:05.816Z,98926.38
2023-04-06T00:30:33.062Z,98925.50
2023-04-06T00:33:00.106Z,98922.94
2023-04-06T00:35:27.419Z,98919.50
2023-04-06T00:37:54.320Z,98925.53
2023-04-06T00:40:21.557Z,98913.44
2023-04-06T00:42:48.500Z,98913.44
2023-04-06T00:45:15.815Z,98904.78
2023-04-06T00:47:43.315Z,98904.81
2023-04-06T00:50:10.815Z,98902.19
2023-04-06T00:52:37.884Z,98905.66
2023-04-06T00:55:05.821Z,98905.66
2023-04-06T00:57:32.853Z,98895.28
2023-04-06T01:00:00.311Z,98901.31
2023-04-06T01:02:27.428Z,98892.69
2023-04-06T01:04:55.934Z,98895.28
2023-04-06T01:07:22.948Z,98891.81
2023-04-06T01:09:50.141Z,98879.72
2023-04-06T01:12:17.126Z,98878.84
2023-04-06T01:14:44.469Z,98876.25
2023-04-06T01:17:11.570Z,98875.41
2023-04-06T01:19:39.049Z,98871.94
2023-04-06T01:22:06.308Z,98871.09
2023-04-06T01:24:34.106Z,98862.44
2023-04-06T01:27:01.937Z,98869.31
2023-04-06T01:29:29.216Z,98858.13
2023-04-06T01:31:56.326Z,98869.34
2023-04-06T01:34:23.593Z,98858.09
2023-04-06T01:36:50.684Z,98862.44
2023-04-06T01:39:17.975Z,98851.19
2023-04-06T01:41:44.901Z,98850.31
2023-04-06T01:44:12.119Z,98842.56
2023-04-06T01:46:39.101Z,98836.50
2023-04-06T01:49:07.010Z,98839.09
2023-04-06T01:51:34.059Z,98838.19
2023-04-06T01:54:01.287Z,98835.63
2023-04-06T01:56:28.249Z,98833.03
2023-04-06T01:58:56.013Z,98833.03
2023-04-06T02:01:23.590Z,98827.00
2023-04-06T02:03:51.137Z,98827.84
2023-04-06T02:06:18.030Z,98814.00
2023-04-06T02:08:45.278Z,98823.53
2023-04-06T02:11:12.233Z,98820.91
2023-04-06T02:13:39.419Z,98815.72
2023-04-06T02:16:06.628Z,98806.22
2023-04-06T02:18:33.908Z,98809.69
2023-04-06T02:21:00.790Z,98803.66
2023-04-06T02:23:28.096Z,98800.16
2023-04-06T02:25:54.941Z,98795.00
2023-04-06T02:28:22.150Z,98800.19
2023-04-06T02:30:49.054Z,98799.31
2023-04-06T02:33:16.504Z,98796.69
2023-04-06T02:35:45.853Z,98790.66
2023-04-06T02:38:13.111Z,98788.06
2023-04-06T02:40:40.080Z,98794.09
2023-04-06T02:43:07.269Z,98778.59
2023-04-06T02:45:51.482Z,98784.63
2023-04-06T02:48:18.698Z,98779.41
2023-04-06T02:50:45.825Z,98779.41
2023-04-06T02:53:12.980Z,98768.19
2023-04-06T02:55:40.005Z,98777.69
2023-04-06T02:58:07.466Z,98769.03
2023-04-06T03:00:34.396Z,98775.97
2023-04-06T03:03:01.759Z,98770.78
2023-04-06T03:05:28.752Z,98767.34
2023-04-06T03:07:55.995Z,98769.03
2023-04-06T03:10:22.932Z,98759.53
2023-04-06T03:12:50.173Z,98756.97
2023-04-06T03:15:17.007Z,98750.06
2023-04-06T03:17:44.200Z,98756.13
2023-04-06T03:20:11.310Z,98751.81
2023-04-06T03:22:38.503Z,98757.00
2023-04-06T03:25:06.008Z,98758.72
2023-04-06T03:27:33.795Z,98751.84
2023-04-06T03:30:01.242Z,98750.09
2023-04-06T03:32:28.749Z,98752.72
2023-04-06T03:34:55.700Z,98757.03
2023-04-06T03:37:22.963Z,98753.59
2023-04-06T03:39:49.910Z,98758.81
2023-04-06T03:42:17.040Z,98753.63
2023-04-06T03:44:44.145Z,98751.91
2023-04-06T03:47:11.297Z,98749.28
2023-04-06T03:49:39.950Z,98746.72
2023-04-06T03:52:07.856Z,98738.97
2023-04-06T03:54:34.700Z,98744.16
2023-04-06T03:57:02.197Z,98741.59
2023-04-06T03:59:29.233Z,98740.75
2023-04-06T04:01:56.523Z,98739.00
2023-04-06T04:04:23.541Z,98735.56
2023-04-06T04:06:51.034Z,98735.56
2023-04-06T04:09:17.864Z,98742.50
2023-04-06T04:11:45.078Z,98737.28
2023-04-06T04:14:11.976Z,98732.13
2023-04-06T04:16:40.499Z,98737.28
2023-04-06T04:19:07.964Z,98740.75
2023-04-06T04:21:45.259Z,98737.28
2023-04-06T04:24:12.827Z,98736.41
2023-04-06T04:26:40.772Z,98745.03
2023-04-06T04:29:08.025Z,98736.38
2023-04-06T04:31:35.460Z,98737.25
2023-04-06T04:34:02.874Z,98738.97
2023-04-06T04:36:30.018Z,98732.91
2023-04-06T04:38:57.058Z,98737.19
2023-04-06T04:41:24.239Z,98725.09
2023-04-06T04:43:51.132Z,98726.81
2023-04-06T04:46:18.362Z,98736.28
2023-04-06T04:48:45.296Z,98732.78
2023-04-06T04:51:12.503Z,98729.34
2023-04-06T04:53:39.399Z,98728.47
2023-04-06T04:56:06.665Z,98724.13
2023-04-06T04:58:33.539Z,98715.50
2023-04-06T05:01:00.733Z,98710.31
2023-04-06T05:03:28.321Z,98713.81
2023-04-06T05:05:55.941Z,98713.81
2023-04-06T05:08:22.892Z,98714.69
2023-04-06T05:10:50.616Z,98706.06
2023-04-06T05:13:17.629Z,98704.38
2023-04-06T05:15:45.017Z,98701.81
2023-04-06T05:18:12.178Z,98704.44
2023-04-06T05:20:40.452Z,98700.13
2023-04-06T05:23:07.402Z,98701.88
2023-04-06T05:25:34.919Z,98698.41
2023-04-06T05:28:02.005Z,98702.72
2023-04-06T05:30:29.323Z,98707.06
2023-04-06T05:32:56.376Z,98701.00
2023-04-06T05:35:23.595Z,98695.84
2023-04-06T05:37:50.587Z,98687.22
2023-04-06T05:40:17.991Z,98688.06
2023-04-06T05:42:45.198Z,98674.25
2023-04-06T05:45:17.816Z,98675.94
2023-04-06T05:47:45.787Z,98663.84
2023-04-06T05:50:13.872Z,98661.28
2023-04-06T05:52:44.063Z,98656.13
2023-04-06T05:55:12.204Z,98655.25
2023-04-06T05:57:39.274Z,98656.13
2023-04-06T06:00:10.030Z,98649.16
2023-04-06T06:02:37.312Z,98645.66
2023-04-06T06:05:04.922Z,98647.38
2023-04-06T06:07:31.875Z,98645.66
2023-04-06T06:09:59.857Z,98642.22
2023-04-06T06:12:26.829Z,98647.38
2023-04-06T06:14:54.266Z,98643.03
2023-04-06T06:17:21.307Z,98639.59
2023-04-06T06:19:48.928Z,98639.59
2023-04-06T06:22:15.816Z,98636.09
2023-04-06T06:24:43.072Z,98631.75
2023-04-06T06:27:09.995Z,98635.16
2023-04-06T06:29:37.266Z,98631.69
2023-04-06T06:32:04.347Z,98630.78
2023-04-06T06:34:31.661Z,98629.06
2023-04-06T06:36:58.595Z,98624.75
2023-04-06T06:39:26.047Z,98627.31
2023-04-06T06:41:53.086Z,98622.94
2023-04-06T06:44:20.611Z,98611.72
2023-04-06T06:46:47.530Z,98610.88
2023-04-06T06:49:15.407Z,98616.91
2023-04-06T06:51:42.360Z,98605.72
2023-04-06T06:54:09.828Z,98614.41
2023-04-06T06:56:40.229Z,98616.13
2023-04-06T06:59:07.678Z,98615.25
2023-04-06T07:01:35.858Z,98598.84
2023-04-06T07:04:03.450Z,98593.69
2023-04-06T07:06:30.475Z,98590.25
2023-04-06T07:08:57.894Z,98579.09
2023-04-06T07:11:24.854Z,98579.13
2023-04-06T07:13:52.364Z,98572.22
2023-04-06T07:16:19.430Z,98564.47
2023-04-06T07:18:47.040Z,98559.28
2023-04-06T07:21:14.105Z,98567.06
2023-04-06T07:23:41.531Z,98560.94
2023-04-06T07:26:08.506Z,98565.22
2023-04-06T07:28:35.972Z,98559.13
2023-04-06T07:31:03.092Z,98548.69
2023-04-06T07:33:31.063Z,98538.34
2023-04-06T07:38:40.525Z,98544.31
2023-04-06T07:41:10.584Z,98546.03
2023-04-06T07:43:43.778Z,98537.34
2023-04-06T07:46:24.593Z,98536.41
2023-04-06T07:49:16.809Z,98529.47
2023-04-06T07:51:44.037Z,98536.34
2023-04-06T07:54:11.085Z,98532.06
2023-04-06T07:56:38.266Z,98548.47
2023-04-06T07:59:05.270Z,98551.06
2023-04-06T08:01:32.539Z,98563.13
2023-04-06T08:04:00.232Z,98566.63
2023-04-06T08:06:27.598Z,98559.72
2023-04-06T08:08:55.474Z,98562.28
2023-04-06T08:11:22.658Z,98562.25
2023-04-06T08:13:49.535Z,98573.41
2023-04-06T08:16:17.048Z,98562.13
2023-04-06T08:18:44.071Z,98560.38
2023-04-06T08:21:11.300Z,98556.84
2023-04-06T08:23:38.287Z,98560.22
2023-04-06T08:26:05.834Z,98554.19
2023-04-06T08:28:33.407Z,98548.94
2023-04-06T08:31:03.960Z,98550.66
2023-04-06T08:33:30.838Z,98544.56
2023-04-06T08:35:58.472Z,98546.25
2023-04-06T08:38:25.631Z,98539.28
2023-04-06T08:40:52.945Z,98536.69
2023-04-06T08:43:23.885Z,98535.78
2023-04-06T08:45:51.093Z,98540.09
2023-04-06T08:48:18.807Z,98529.59
2023-04-06T08:50:46.700Z,98538.25
2023-04-06T08:53:14.780Z,98567.59
2023-04-06T08:55:44.671Z,98591.69
2023-04-06T08:58:11.710Z,98593.28
2023-04-06T09:00:40.690Z,98595.72
2023-04-06T09:03:08.970Z,98597.28
2023-04-06T09:05:36.705Z,98591.97
2023-04-06T09:08:04.074Z,98597.03
2023-04-06T09:10:31.335Z,98602.16
2023-04-06T09:13:07.853Z,98600.47
2023-04-06T09:15:35.928Z,98592.63
2023-04-06T09:18:03.108Z,98587.41
2023-04-06T09:20:30.481Z,98592.53
2023-04-06T09:22:57.494Z,98592.50
2023-04-06T09:25:27.680Z,98587.31
2023-04-06T09:28:05.465Z,98570.88
2023-04-06T09:30:32.764Z,98570.78
2023-04-06T09:33:00.985Z,98575.84
2023-04-06T09:35:28.578Z,98573.22
2023-04-06T09:37:56.532Z,98580.03
2023-04-06T09:40:23.870Z,98582.53
2023-04-06T09:42:53.793Z,98578.94
2023-04-06T09:45:22.063Z,98578.06
2023-04-06T09:47:51.157Z,98571.94
2023-04-06T09:50:20.728Z,98570.25
2023-04-06T09:52:54.495Z,98573.53
2023-04-06T09:55:31.654Z,98568.09
2023-04-06T09:58:13.786Z,98573.88
2023-04-06T10:00:59.825Z,98570.19
2023-04-06T10:04:13.466Z,98582.34
2023-04-06T10:06:41.266Z,98576.31
2023-04-06T10:09:09.220Z,98583.22
2023-04-06T10:11:37.062Z,98575.31
2023-04-06T10:14:04.023Z,98580.31
2023-04-06T10:16:32.047Z,98576.75
2023-04-06T10:19:11.233Z,98568.97
2023-04-06T10:21:40.881Z,98568.78
2023-04-06T10:24:14.732Z,98568.69
2023-04-06T10:26:41.974Z,98558.31
2023-04-06T10:29:08.974Z,98549.56
2023-04-06T10:31:44.541Z,98559.97
2023-04-06T10:34:11.589Z,98553.69
2023-04-06T10:36:39.092Z,98546.72
2023-04-06T10:39:07.598Z,98549.19
2023-04-06T10:41:47.229Z,98548.25
2023-04-06T10:44:26.594Z,98550.53
2023-04-06T10:46:56.145Z,98549.66
2023-04-06T10:49:25.194Z,98545.88
2023-04-06T10:51:57.615Z,98544.72
2023-04-06T10:54:26.970Z,98550.94
2023-04-06T10:56:54.268Z,98552.16
2023-04-06T10:59:22.736Z,98560.19
2023-04-06T11:01:50.540Z,98550.59
2023-04-06T11:04:22.243Z,98544.91
2023-04-06T11:06:50.920Z,98543.09
2023-04-06T11:09:32.663Z,98540.44
2023-04-06T11:12:00.095Z,98544.63
2023-04-06T11:14:27.751Z,98548.16
2023-04-06T11:16:55.983Z,98549.09
2023-04-06T11:19:23.098Z,98542.22
2023-04-06T11:21:50.549Z,98547.34
2023-04-06T11:24:22.272Z,98549.84
2023-04-06T11:26:56.715Z,98542.00
2023-04-06T11:29:25.892Z,98545.47
2023-04-06T11:31:55.233Z,98543.81
2023-04-06T11:34:26.229Z,98542.41
2023-04-06T11:37:01.804Z,98549.34
2023-04-06T11:39:30.662Z,98543.31
2023-04-06T11:42:01.407Z,98547.88
2023-04-06T11:44:50.745Z,98545.19
2023-04-06T11:47:18.095Z,98540.56
2023-04-06T11:49:48.778Z,98536.75
2023-04-06T11:52:20.077Z,98536.56
2023-04-06T11:54:48.838Z,98542.34
2023-04-06T11:57:17.723Z,98545.88
2023-04-06T11:59:45.518Z,98533.78
2023-04-06T12:02:13.142Z,98534.84
2023-04-06T12:04:40.176Z,98535.75
2023-04-06T12:07:07.457Z,98540.28
2023-04-06T12:09:35.790Z,98543.09
2023-04-06T12:12:03.235Z,98533.59
2023-04-06T12:14:31.808Z,98532.88
2023-04-06T12:16:59.631Z,98530.56
2023-04-06T12:19:27.138Z,98531.44
2023-04-06T12:21:55.722Z,98535.03
2023-04-06T12:24:22.860Z,98530.03
2023-04-06T12:26:54.007Z,98530.97
2023-04-06T12:29:26.811Z,98525.69
2023-04-06T12:31:54.424Z,98526.59
2023-04-06T12:34:21.649Z,98517.84
2023-04-06T12:36:48.918Z,98524.75
2023-04-06T12:39:19.320Z,98523.72
2023-04-06T12:41:47.833Z,98531.63
2023-04-06T12:44:14.757Z,98536.09
2023-04-06T12:46:44.313Z,98525.59
2023-04-06T12:49:11.370Z,98528.97
2023-04-06T12:51:38.629Z,98519.31
2023-04-06T12:54:05.795Z,98510.47
2023-04-06T12:56:33.751Z,98519.00
2023-04-06T12:59:00.828Z,98518.97
2023-04-06T13:01:29.212Z,98526.69
2023-04-06T13:03:57.411Z,98528.34
2023-04-06T13:06:28.613Z,98524.97
2023-04-06T13:08:56.619Z,98518.91
2023-04-06T13:11:26.240Z,98519.66
2023-04-06T13:13:54.063Z,98513.66
2023-04-06T13:16:21.700Z,98516.38
2023-04-06T13:18:48.755Z,98510.50
2023-04-06T13:21:17.956Z,98513.25
2023-04-06T13:23:45.486Z,98506.59
2023-04-06T13:26:14.536Z,98511.88
2023-04-06T13:28:41.763Z,98517.22
2023-04-06T13:31:10.774Z,98501.78
2023-04-06T13:33:38.186Z,98495.09
2023-04-06T13:36:07.794Z,98510.81
2023-04-06T13:38:34.933Z,98504.00
2023-04-06T13:41:02.220Z,98504.94
2023-04-06T13:43:29.222Z,98493.69
2023-04-06T13:45:59.044Z,98492.72
2023-04-06T13:48:27.104Z,98493.63
2023-04-06T13:50:54.853Z,98488.50
2023-04-06T13:53:21.690Z,98494.56
2023-04-06T13:55:56.235Z,98486.00
2023-04-06T13:58:23.357Z,98492.91
2023-04-06T14:00:50.893Z,98498.16
2023-04-06T14:03:18.117Z,98495.63
2023-04-06T14:05:48.590Z,98497.44
2023-04-06T14:08:15.505Z,98496.59
2023-04-06T14:10:43.477Z,98483.66
2023-04-06T14:13:10.633Z,98481.88
2023-04-06T14:15:38.469Z,98491.47
2023-04-06T14:18:05.548Z,98486.25
2023-04-06T14:20:33.708Z,98474.13
2023-04-06T14:23:03.860Z,98483.75
2023-04-06T14:25:35.656Z,98481.97
2023-04-06T14:28:02.977Z,98487.19
2023-04-06T14:30:31.700Z,98488.94
2023-04-06T14:32:59.438Z,98492.41
2023-04-06T14:35:29.277Z,98500.19
2023-04-06T14:37:59.193Z,98490.66
2023-04-06T14:40:26.578Z,98488.94
2023-04-06T14:42:53.571Z,98485.34
2023-04-06T14:45:22.777Z,98483.59
2023-04-06T14:47:49.864Z,98493.16
2023-04-06T14:50:17.241Z,98504.63
2023-04-06T14:52:44.108Z,98497.78
2023-04-06T14:55:11.292Z,98477.16
2023-04-06T14:57:38.203Z,98477.25
2023-04-06T15:00:07.132Z,98479.81
2023-04-06T15:02:34.162Z,98487.53
2023-04-06T15:05:01.952Z,98487.47
2023-04-06T15:07:28.882Z,98484.94
2023-04-06T15:09:56.101Z,98490.22
2023-04-06T15:12:23.052Z,98474.69
2023-04-06T15:14:50.413Z,98483.44
2023-04-06T15:17:17.303Z,98484.41
2023-04-06T15:19:44.481Z,98479.22
2023-04-06T15:22:12.526Z,98481.84
2023-04-06T15:24:39.851Z,98478.44
2023-04-06T15:27:07.614Z,98478.44
2023-04-06T15:29:35.013Z,98477.63
2023-04-06T15:32:02.838Z,98473.38
2023-04-06T15:34:33.584Z,98473.38
2023-04-06T15:37:04.988Z,98473.38
2023-04-06T15:39:33.484Z,98470.00
2023-04-06T15:42:01.199Z,98463.19
2023-04-06T15:44:28.408Z,98460.63
2023-04-06T15:46:55.909Z,98463.28
2023-04-06T15:49:23.182Z,98465.09
2023-04-06T15:51:51.741Z,98475.50
2023-04-06T15:54:21.165Z,98468.53
2023-04-06T15:56:48.737Z,98480.75
2023-04-06T15:59:16.812Z,98472.94
2023-04-06T16:01:44.320Z,98468.63
2023-04-06T16:04:12.475Z,98471.22
2023-04-06T16:06:39.457Z,98471.22
2023-04-06T16:09:06.721Z,98468.69
2023-04-06T16:11:33.613Z,98469.59
2023-04-06T16:14:01.104Z,98469.59
2023-04-06T16:16:28.058Z,98470.44
2023-04-06T16:18:55.384Z,98466.94
2023-04-06T16:21:22.310Z,98468.69
2023-04-06T16:23:49.451Z,98470.38
2023-04-06T16:26:20.316Z,98464.41
2023-04-06T16:28:47.733Z,98469.53
2023-04-06T16:31:19.173Z,98474.78
2023-04-06T16:33:46.888Z,98465.25
2023-04-06T16:36:14.642Z,98454.84
2023-04-06T16:38:41.946Z,98459.19
2023-04-06T16:41:08.842Z,98456.59
2023-04-06T16:43:36.365Z,98447.09
2023-04-06T16:46:03.346Z,98454.03
2023-04-06T16:48:30.536Z,98450.59
2023-04-06T16:50:57.391Z,98454.06
2023-04-06T16:53:24.607Z,98460.13
2023-04-06T16:55:51.452Z,98452.34
2023-04-06T16:58:18.840Z,98446.31
2023-04-06T17:00:45.989Z,98453.25
2023-04-06T17:03:13.305Z,98456.69
2023-04-06T17:05:40.339Z,98452.34
2023-04-06T17:08:07.631Z,98454.94
2023-04-06T17:10:41.547Z,98455.84
2023-04-06T17:13:18.880Z,98454.13
2023-04-06T17:15:45.846Z,98458.47
2023-04-06T17:18:13.038Z,98466.28
2023-04-06T17:20:40.090Z,98464.50
2023-04-06T17:23:07.249Z,98461.09
2023-04-06T17:25:34.213Z,98463.63
2023-04-06T17:28:01.446Z,98461.03
2023-04-06T17:30:28.437Z,98458.47
2023-04-06T17:32:55.955Z,98454.09
2023-04-06T17:35:22.990Z,98465.31
2023-04-06T17:37:50.450Z,98457.59
2023-04-06T17:40:17.322Z,98455.00
2023-04-06T17:42:44.630Z,98449.75
2023-04-06T17:45:11.821Z,98465.31
2023-04-06T17:47:39.045Z,98461.03
2023-04-06T17:50:06.738Z,98467.06
2023-04-06T17:52:33.885Z,98460.22
2023-04-06T17:55:00.837Z,98451.53
2023-04-06T17:57:28.055Z,98451.56
2023-04-06T17:59:55.407Z,98455.00
2023-04-06T18:02:22.811Z,98446.38
2023-04-06T18:04:53.632Z,98451.56
2023-04-06T18:07:21.145Z,98455.03
2023-04-06T18:09:48.081Z,98464.50
2023-04-06T18:12:15.604Z,98458.44
2023-04-06T18:14:42.689Z,98460.13
2023-04-06T18:17:09.835Z,98460.16
2023-04-06T18:19:36.759Z,98460.97
2023-04-06T18:22:04.043Z,98449.75
2023-04-06T18:24:42.317Z,98457.53
2023-04-06T18:27:13.108Z,98457.53
2023-04-06T18:29:41.014Z,98455.78
2023-04-06T18:32:08.159Z,98449.81
2023-04-06T18:34:36.178Z,98463.59
2023-04-06T18:37:03.352Z,98462.69
2023-04-06T18:39:30.621Z,98466.94
2023-04-06T18:41:58.675Z,98466.09
2023-04-06T18:44:25.494Z,98461.78
2023-04-06T18:46:55.095Z,98464.41
2023-04-06T18:49:22.647Z,98454.84
2023-04-06T18:51:49.951Z,98447.94
2023-04-06T18:54:17.215Z,98439.31
2023-04-06T18:56:44.336Z,98442.72
2023-04-06T18:59:12.148Z,98447.91
2023-04-06T19:01:43.869Z,98445.31
2023-04-06T19:04:11.954Z,98447.00
2023-04-06T19:06:39.438Z,98446.16
2023-04-06T19:09:06.676Z,98447.91
2023-04-06T19:11:33.969Z,98443.56
2023-04-06T19:14:01.022Z,98439.22
2023-04-06T19:16:29.395Z,98439.22
2023-04-06T19:18:56.601Z,98433.13
2023-04-06T19:21:26.371Z,98434.94
2023-04-06T19:23:55.305Z,98434.03
2023-04-06T19:26:24.192Z,98433.19
2023-04-06T19:28:51.378Z,98430.56
2023-04-06T19:31:19.788Z,98424.47
2023-04-06T19:33:48.141Z,98433.94
2023-04-06T19:36:16.446Z,98428.75
2023-04-06T19:38:43.540Z,98430.44
2023-04-06T19:41:10.841Z,98429.59
2023-04-06T19:43:37.722Z,98436.47
2023-04-06T19:46:05.027Z,98430.44
2023-04-06T19:48:34.075Z,98435.63
2023-04-06T19:51:01.752Z,98435.69
2023-04-06T19:53:28.710Z,98438.28
2023-04-06T19:55:56.033Z,98438.28
2023-04-06T19:58:23.813Z,98442.59
2023-04-06T20:00:51.183Z,98436.56
2023-04-06T20:03:18.376Z,98438.31
2023-04-06T20:05:46.795Z,98430.50
2023-04-06T20:08:14.120Z,98431.41
2023-04-06T20:10:41.340Z,98430.53
2023-04-06T20:13:08.401Z,98427.06
2023-04-06T20:15:35.644Z,98422.72
2023-04-06T20:18:02.578Z,98424.38
2023-04-06T20:20:29.877Z,98417.50
2023-04-06T20:22:56.859Z,98419.22
2023-04-06T20:25:24.156Z,98407.16
2023-04-06T20:27:53.170Z,98412.28
2023-04-06T20:30:20.431Z,98407.97
2023-04-06T20:32:47.352Z,98411.41
2023-04-06T20:35:14.538Z,98409.66
2023-04-06T20:37:42.601Z,98412.19
2023-04-06T20:40:10.642Z,98414.75
2023-04-06T20:42:37.570Z,98400.94
2023-04-06T20:45:06.105Z,98402.63
2023-04-06T20:47:33.093Z,98401.78
2023-04-06T20:50:00.669Z,98408.66
2023-04-06T20:52:28.060Z,98416.44
2023-04-06T20:54:55.941Z,98407.84
2023-04-06T20:57:24.089Z,98406.91
2023-04-06T20:59:51.332Z,98412.09
2023-04-06T21:02:18.434Z,98413.84
2023-04-06T21:04:46.040Z,98413.78
2023-04-06T21:07:13.134Z,98405.16
2023-04-06T21:09:41.383Z,98405.22
2023-04-06T21:12:08.499Z,98399.09
2023-04-06T21:14:36.748Z,98399.88
2023-04-06T21:17:04.242Z,98389.53
2023-04-06T21:19:31.532Z,98391.25
2023-04-06T21:21:58.489Z,98401.63
2023-04-06T21:24:25.964Z,98411.09
2023-04-06T21:26:52.829Z,98409.34
2023-04-06T21:29:20.260Z,98413.69
2023-04-06T21:31:47.237Z,98419.72
2023-04-06T21:34:14.876Z,98421.41
2023-04-06T21:36:42.546Z,98412.69
2023-04-06T21:39:09.872Z,98413.53
2023-04-06T21:41:36.856Z,98409.22
2023-04-06T21:44:04.343Z,98405.75
2023-04-06T21:46:31.360Z,98412.66
2023-04-06T21:48:58.815Z,98409.22
2023-04-06T21:51:25.678Z,98401.47
2023-04-06T21:53:53.870Z,98404.94
2023-04-06T21:56:22.559Z,98393.75
2023-04-06T21:58:50.996Z,98380.81
2023-04-06T22:01:18.519Z,98388.56
2023-04-06T22:03:46.579Z,98386.03
2023-04-06T22:06:13.699Z,98383.44
2023-04-06T22:08:41.032Z,98386.03
2023-04-06T22:11:10.145Z,98379.97
2023-04-06T22:13:37.847Z,98385.19
2023-04-06T22:16:05.621Z,98386.91
2023-04-06T22:18:33.516Z,98382.59
2023-04-06T22:21:01.276Z,98385.19
2023-04-06T22:23:28.415Z,98383.41
2023-04-06T22:25:58.077Z,98379.09
2023-04-06T22:28:26.436Z,98388.63
2023-04-06T22:30:53.372Z,98386.03
2023-04-06T22:33:20.720Z,98386.03
2023-04-06T22:35:47.609Z,98373.91
2023-04-06T22:38:14.821Z,98376.50
2023-04-06T22:40:41.774Z,98374.75
2023-04-06T22:43:09.132Z,98377.38
2023-04-06T22:45:36.338Z,98380.81
2023-04-06T22:48:04.010Z,98386.91
2023-04-06T22:50:31.654Z,98388.63
2023-04-06T22:52:59.033Z,98377.31
2023-04-06T22:55:26.177Z,98372.13
2023-04-06T22:57:53.461Z,98371.28
2023-04-06T23:00:20.741Z,98375.63
2023-04-06T23:02:48.125Z,98367.88
2023-04-06T23:05:15.139Z,98372.22
2023-04-06T23:07:42.312Z,98374.75
2023-04-06T23:10:09.785Z,98379.94
2023-04-06T23:12:36.969Z,98372.16
2023-04-06T23:15:04.286Z,98360.88
2023-04-06T23:17:31.574Z,98363.47
2023-04-06T23:19:58.435Z,98365.16
2023-04-06T23:22:25.674Z,98367.84
2023-04-06T23:24:52.560Z,98367.84
2023-04-06T23:27:19.864Z,98359.16
2023-04-06T23:29:46.703Z,98347.09
2023-04-06T23:32:13.967Z,98359.13
2023-04-06T23:34:41.001Z,98347.06
2023-04-06T23:37:08.167Z,98346.16
2023-04-06T23:39:35.581Z,98345.31
2023-04-06T23:42:02.996Z,98340.09
2023-04-06T23:44:30.903Z,98347.91
2023-04-06T23:46:58.186Z,98336.75
2023-04-06T23:49:25.205Z,98339.34
2023-04-06T23:51:52.374Z,98331.56
2023-04-06T23:54:19.311Z,98332.41
2023-04-06T23:56:46.492Z,98334.94
2023-04-06T23:59:13.396Z,98337.53
